sensor_id;sensor_type;location;lat;lon;timestamp;P1;durP1;ratioP1;P2;durP2;ratioP2
63492;SDS011;49638;47.526;10.028;2022-08-19T00:01:42;6.68;;;5.72;;
63492;SDS011;49638;47.526;10.028;2022-08-19T00:04:44;9.07;;;5.97;;
63492;SDS011;49638;47.526;10.028;2022-08-19T00:07:46;7.90;;;6.18;;
63492;SDS011;49638;47.526;10.028;2022-08-19T00:10:48;8.02;;;6.43;;
63492;SDS011;49638;47.526;10.028;2022-08-19T00:13:48;8.18;;;6.40;;
63492;SDS011;49638;47.526;10.028;2022-08-19T00:16:49;8.65;;;6.25;;
63492;SDS011;49638;47.526;10.028;2022-08-19T00:22:54;9.43;;;6.25;;
63492;SDS011;49638;47.526;10.028;2022-08-19T00:25:54;8.85;;;6.70;;
63492;SDS011;49638;47.526;10.028;2022-08-19T00:28:55;9.93;;;6.57;;
63492;SDS011;49638;47.526;10.028;2022-08-19T00:31:56;9.55;;;7.60;;
63492;SDS011;49638;47.526;10.028;2022-08-19T00:34:58;12.95;;;9.13;;
63492;SDS011;49638;47.526;10.028;2022-08-19T00:37:58;9.05;;;6.78;;
63492;SDS011;49638;47.526;10.028;2022-08-19T00:40:59;8.98;;;7.13;;
63492;SDS011;49638;47.526;10.028;2022-08-19T00:47:02;10.65;;;7.47;;
63492;SDS011;49638;47.526;10.028;2022-08-19T00:50:03;9.45;;;6.97;;
63492;SDS011;49638;47.526;10.028;2022-08-19T00:53:04;9.90;;;7.22;;
63492;SDS011;49638;47.526;10.028;2022-08-19T00:56:06;9.52;;;6.90;;
63492;SDS011;49638;47.526;10.028;2022-08-19T00:59:08;10.35;;;6.88;;
63492;SDS011;49638;47.526;10.028;2022-08-19T01:02:09;8.80;;;6.95;;
63492;SDS011;49638;47.526;10.028;2022-08-19T01:05:11;14.63;;;8.05;;
63492;SDS011;49638;47.526;10.028;2022-08-19T01:08:15;10.95;;;8.13;;
63492;SDS011;49638;47.526;10.028;2022-08-19T01:11:17;38.75;;;9.25;;
63492;SDS011;49638;47.526;10.028;2022-08-19T01:14:17;11.02;;;7.97;;
63492;SDS011;49638;47.526;10.028;2022-08-19T01:17:18;10.90;;;7.82;;
63492;SDS011;49638;47.526;10.028;2022-08-19T01:20:20;35.42;;;8.05;;
63492;SDS011;49638;47.526;10.028;2022-08-19T01:23:22;14.43;;;8.57;;
63492;SDS011;49638;47.526;10.028;2022-08-19T01:26:43;10.90;;;7.90;;
63492;SDS011;49638;47.526;10.028;2022-08-19T01:29:44;10.40;;;7.57;;
63492;SDS011;49638;47.526;10.028;2022-08-19T01:32:46;8.90;;;7.20;;
63492;SDS011;49638;47.526;10.028;2022-08-19T01:35:47;9.30;;;7.20;;
63492;SDS011;49638;47.526;10.028;2022-08-19T01:38:51;11.32;;;8.32;;
63492;SDS011;49638;47.526;10.028;2022-08-19T01:41:52;11.98;;;8.43;;
63492;SDS011;49638;47.526;10.028;2022-08-19T01:44:54;12.90;;;8.50;;
63492;SDS011;49638;47.526;10.028;2022-08-19T01:47:54;15.48;;;9.32;;
63492;SDS011;49638;47.526;10.028;2022-08-19T01:50:55;12.25;;;8.68;;
63492;SDS011;49638;47.526;10.028;2022-08-19T01:53:56;13.45;;;9.48;;
63492;SDS011;49638;47.526;10.028;2022-08-19T01:57:03;13.05;;;9.43;;
63492;SDS011;49638;47.526;10.028;2022-08-19T02:00:08;11.35;;;8.40;;
63492;SDS011;49638;47.526;10.028;2022-08-19T02:03:11;25.80;;;8.35;;
63492;SDS011;49638;47.526;10.028;2022-08-19T02:06:12;20.63;;;7.95;;
63492;SDS011;49638;47.526;10.028;2022-08-19T02:09:12;13.88;;;7.68;;
63492;SDS011;49638;47.526;10.028;2022-08-19T02:12:13;9.98;;;7.45;;
63492;SDS011;49638;47.526;10.028;2022-08-19T02:15:14;13.20;;;7.78;;
63492;SDS011;49638;47.526;10.028;2022-08-19T02:18:15;30.67;;;8.77;;
63492;SDS011;49638;47.526;10.028;2022-08-19T02:21:16;30.83;;;8.43;;
63492;SDS011;49638;47.526;10.028;2022-08-19T02:24:18;9.32;;;6.40;;
63492;SDS011;49638;47.526;10.028;2022-08-19T02:27:18;11.43;;;7.35;;
63492;SDS011;49638;47.526;10.028;2022-08-19T02:30:19;8.82;;;6.80;;
63492;SDS011;49638;47.526;10.028;2022-08-19T02:33:20;24.55;;;7.78;;
63492;SDS011;49638;47.526;10.028;2022-08-19T02:36:20;18.95;;;9.18;;
63492;SDS011;49638;47.526;10.028;2022-08-19T02:39:21;37.80;;;10.40;;
63492;SDS011;49638;47.526;10.028;2022-08-19T02:42:21;135.48;;;12.38;;
63492;SDS011;49638;47.526;10.028;2022-08-19T02:45:22;20.13;;;10.15;;
63492;SDS011;49638;47.526;10.028;2022-08-19T02:48:24;18.83;;;10.57;;
63492;SDS011;49638;47.526;10.028;2022-08-19T02:51:26;113.80;;;12.95;;
63492;SDS011;49638;47.526;10.028;2022-08-19T02:54:28;13.70;;;10.18;;
63492;SDS011;49638;47.526;10.028;2022-08-19T02:57:29;16.90;;;11.55;;
63492;SDS011;49638;47.526;10.028;2022-08-19T03:00:31;16.88;;;12.10;;
63492;SDS011;49638;47.526;10.028;2022-08-19T03:03:32;13.63;;;10.00;;
63492;SDS011;49638;47.526;10.028;2022-08-19T03:06:35;15.65;;;11.57;;
63492;SDS011;49638;47.526;10.028;2022-08-19T03:09:37;51.30;;;13.63;;
63492;SDS011;49638;47.526;10.028;2022-08-19T03:12:37;41.28;;;12.00;;
63492;SDS011;49638;47.526;10.028;2022-08-19T03:15:39;19.33;;;9.45;;
63492;SDS011;49638;47.526;10.028;2022-08-19T03:18:41;23.35;;;10.85;;
63492;SDS011;49638;47.526;10.028;2022-08-19T03:21:42;66.05;;;12.45;;
63492;SDS011;49638;47.526;10.028;2022-08-19T03:24:44;29.75;;;10.25;;
63492;SDS011;49638;47.526;10.028;2022-08-19T03:27:44;36.72;;;11.32;;
63492;SDS011;49638;47.526;10.028;2022-08-19T03:34:00;62.60;;;11.13;;
63492;SDS011;49638;47.526;10.028;2022-08-19T03:37:03;18.63;;;10.82;;
63492;SDS011;49638;47.526;10.028;2022-08-19T03:40:06;10.18;;;7.45;;
63492;SDS011;49638;47.526;10.028;2022-08-19T03:43:07;10.75;;;6.00;;
63492;SDS011;49638;47.526;10.028;2022-08-19T03:46:10;6.40;;;4.72;;
63492;SDS011;49638;47.526;10.028;2022-08-19T03:52:12;5.50;;;4.10;;
63492;SDS011;49638;47.526;10.028;2022-08-19T03:55:13;4.63;;;3.83;;
63492;SDS011;49638;47.526;10.028;2022-08-19T03:58:13;5.03;;;3.30;;
63492;SDS011;49638;47.526;10.028;2022-08-19T04:01:15;3.58;;;2.85;;
63492;SDS011;49638;47.526;10.028;2022-08-19T04:07:18;2.65;;;1.48;;
63492;SDS011;49638;47.526;10.028;2022-08-19T04:10:21;1.75;;;1.60;;
63492;SDS011;49638;47.526;10.028;2022-08-19T04:13:22;1.83;;;1.73;;
63492;SDS011;49638;47.526;10.028;2022-08-19T04:16:25;1.98;;;1.50;;
63492;SDS011;49638;47.526;10.028;2022-08-19T04:19:30;1.40;;;1.30;;
63492;SDS011;49638;47.526;10.028;2022-08-19T04:22:31;1.40;;;1.30;;
63492;SDS011;49638;47.526;10.028;2022-08-19T04:25:36;1.40;;;1.30;;
63492;SDS011;49638;47.526;10.028;2022-08-19T04:28:38;1.50;;;1.40;;
63492;SDS011;49638;47.526;10.028;2022-08-19T04:31:39;1.20;;;1.00;;
63492;SDS011;49638;47.526;10.028;2022-08-19T04:34:41;1.17;;;1.08;;
63492;SDS011;49638;47.526;10.028;2022-08-19T04:37:42;0.77;;;0.77;;
63492;SDS011;49638;47.526;10.028;2022-08-19T04:40:43;1.23;;;1.13;;
63492;SDS011;49638;47.526;10.028;2022-08-19T04:44:04;2.00;;;1.80;;
63492;SDS011;49638;47.526;10.028;2022-08-19T04:47:05;2.47;;;2.20;;
63492;SDS011;49638;47.526;10.028;2022-08-19T04:50:06;2.38;;;2.13;;
63492;SDS011;49638;47.526;10.028;2022-08-19T04:53:09;2.15;;;1.92;;
63492;SDS011;49638;47.526;10.028;2022-08-19T04:56:13;2.28;;;1.70;;
63492;SDS011;49638;47.526;10.028;2022-08-19T04:59:14;2.42;;;2.15;;
63492;SDS011;49638;47.526;10.028;2022-08-19T05:02:15;3.85;;;2.17;;
63492;SDS011;49638;47.526;10.028;2022-08-19T05:05:16;1.75;;;1.52;;
63492;SDS011;49638;47.526;10.028;2022-08-19T05:08:18;2.20;;;1.90;;
63492;SDS011;49638;47.526;10.028;2022-08-19T05:11:24;2.10;;;1.90;;
63492;SDS011;49638;47.526;10.028;2022-08-19T05:14:26;1.80;;;1.70;;
63492;SDS011;49638;47.526;10.028;2022-08-19T05:17:27;1.88;;;1.77;;
63492;SDS011;49638;47.526;10.028;2022-08-19T05:20:27;3.28;;;2.22;;
63492;SDS011;49638;47.526;10.028;2022-08-19T05:23:46;2.45;;;2.25;;
63492;SDS011;49638;47.526;10.028;2022-08-19T05:26:47;2.05;;;1.80;;
63492;SDS011;49638;47.526;10.028;2022-08-19T05:29:49;1.70;;;1.50;;
63492;SDS011;49638;47.526;10.028;2022-08-19T05:32:49;1.73;;;1.63;;
63492;SDS011;49638;47.526;10.028;2022-08-19T05:35:50;2.45;;;1.80;;
63492;SDS011;49638;47.526;10.028;2022-08-19T05:38:50;3.08;;;2.45;;
63492;SDS011;49638;47.526;10.028;2022-08-19T05:41:54;4.45;;;3.28;;
63492;SDS011;49638;47.526;10.028;2022-08-19T05:44:58;5.28;;;4.22;;
63492;SDS011;49638;47.526;10.028;2022-08-19T05:47:58;6.30;;;4.30;;
63492;SDS011;49638;47.526;10.028;2022-08-19T05:51:02;5.85;;;4.20;;
63492;SDS011;49638;47.526;10.028;2022-08-19T05:54:06;7.65;;;4.47;;
63492;SDS011;49638;47.526;10.028;2022-08-19T05:57:08;7.65;;;4.85;;
63492;SDS011;49638;47.526;10.028;2022-08-19T06:00:09;6.90;;;4.97;;
63492;SDS011;49638;47.526;10.028;2022-08-19T06:03:10;6.53;;;4.68;;
63492;SDS011;49638;47.526;10.028;2022-08-19T06:06:14;7.00;;;4.47;;
63492;SDS011;49638;47.526;10.028;2022-08-19T06:09:18;8.95;;;5.72;;
63492;SDS011;49638;47.526;10.028;2022-08-19T06:12:20;7.68;;;5.55;;
63492;SDS011;49638;47.526;10.028;2022-08-19T06:15:26;7.60;;;5.38;;
63492;SDS011;49638;47.526;10.028;2022-08-19T06:18:27;8.35;;;6.00;;
63492;SDS011;49638;47.526;10.028;2022-08-19T06:21:28;8.20;;;5.90;;
63492;SDS011;49638;47.526;10.028;2022-08-19T06:24:30;7.75;;;5.82;;
63492;SDS011;49638;47.526;10.028;2022-08-19T06:27:31;8.52;;;5.95;;
63492;SDS011;49638;47.526;10.028;2022-08-19T06:30:32;8.23;;;5.75;;
63492;SDS011;49638;47.526;10.028;2022-08-19T06:33:33;6.65;;;5.20;;
63492;SDS011;49638;47.526;10.028;2022-08-19T06:36:51;6.38;;;4.55;;
63492;SDS011;49638;47.526;10.028;2022-08-19T06:39:52;4.35;;;3.75;;
63492;SDS011;49638;47.526;10.028;2022-08-19T06:42:52;5.13;;;3.90;;
63492;SDS011;49638;47.526;10.028;2022-08-19T06:45:53;4.72;;;3.50;;
63492;SDS011;49638;47.526;10.028;2022-08-19T06:48:53;5.22;;;3.40;;
63492;SDS011;49638;47.526;10.028;2022-08-19T06:51:54;3.92;;;3.40;;
63492;SDS011;49638;47.526;10.028;2022-08-19T06:54:56;3.38;;;2.90;;
63492;SDS011;49638;47.526;10.028;2022-08-19T06:57:57;3.33;;;2.85;;
63492;SDS011;49638;47.526;10.028;2022-08-19T07:00:58;3.55;;;2.70;;
63492;SDS011;49638;47.526;10.028;2022-08-19T07:04:00;3.25;;;2.95;;
63492;SDS011;49638;47.526;10.028;2022-08-19T07:07:03;3.92;;;3.25;;
63492;SDS011;49638;47.526;10.028;2022-08-19T07:10:08;4.43;;;3.63;;
63492;SDS011;49638;47.526;10.028;2022-08-19T07:13:09;3.63;;;3.10;;
63492;SDS011;49638;47.526;10.028;2022-08-19T07:16:12;3.53;;;3.10;;
63492;SDS011;49638;47.526;10.028;2022-08-19T07:22:15;5.50;;;3.40;;
63492;SDS011;49638;47.526;10.028;2022-08-19T07:25:15;3.97;;;3.40;;
63492;SDS011;49638;47.526;10.028;2022-08-19T07:28:17;4.60;;;3.47;;
63492;SDS011;49638;47.526;10.028;2022-08-19T07:31:19;4.25;;;3.83;;
63492;SDS011;49638;47.526;10.028;2022-08-19T07:34:22;4.22;;;3.55;;
63492;SDS011;49638;47.526;10.028;2022-08-19T07:37:23;3.90;;;3.30;;
63492;SDS011;49638;47.526;10.028;2022-08-19T07:40:26;7.87;;;3.03;;
63492;SDS011;49638;47.526;10.028;2022-08-19T07:43:27;5.60;;;2.65;;
63492;SDS011;49638;47.526;10.028;2022-08-19T07:46:29;3.75;;;2.55;;
63492;SDS011;49638;47.526;10.028;2022-08-19T07:49:33;3.05;;;2.55;;
63492;SDS011;49638;47.526;10.028;2022-08-19T07:52:34;2.92;;;2.50;;
63492;SDS011;49638;47.526;10.028;2022-08-19T07:55:35;2.50;;;2.30;;
63492;SDS011;49638;47.526;10.028;2022-08-19T07:58:37;3.75;;;2.40;;
63492;SDS011;49638;47.526;10.028;2022-08-19T08:01:39;2.42;;;2.22;;
63492;SDS011;49638;47.526;10.028;2022-08-19T08:04:40;2.22;;;2.00;;
63492;SDS011;49638;47.526;10.028;2022-08-19T08:07:58;2.00;;;1.80;;
63492;SDS011;49638;47.526;10.028;2022-08-19T08:11:19;1.90;;;1.80;;
63492;SDS011;49638;47.526;10.028;2022-08-19T08:14:22;1.80;;;1.70;;
63492;SDS011;49638;47.526;10.028;2022-08-19T08:17:26;1.25;;;1.15;;
63492;SDS011;49638;47.526;10.028;2022-08-19T08:20:28;1.30;;;1.20;;
63492;SDS011;49638;47.526;10.028;2022-08-19T08:23:28;1.30;;;1.20;;
63492;SDS011;49638;47.526;10.028;2022-08-19T08:26:30;1.00;;;1.00;;
63492;SDS011;49638;47.526;10.028;2022-08-19T08:29:30;3.67;;;2.80;;
63492;SDS011;49638;47.526;10.028;2022-08-19T08:32:31;4.68;;;3.35;;
63492;SDS011;49638;47.526;10.028;2022-08-19T08:35:31;7.93;;;4.97;;
63492;SDS011;49638;47.526;10.028;2022-08-19T08:38:32;31.70;;;7.50;;
63492;SDS011;49638;47.526;10.028;2022-08-19T08:44:58;16.83;;;10.35;;
63492;SDS011;49638;47.526;10.028;2022-08-19T08:48:02;20.75;;;10.80;;
63492;SDS011;49638;47.526;10.028;2022-08-19T08:51:15;13.93;;;9.05;;
63492;SDS011;49638;47.526;10.028;2022-08-19T08:54:37;14.27;;;9.23;;
63492;SDS011;49638;47.526;10.028;2022-08-19T09:00:54;16.60;;;10.70;;
63492;SDS011;49638;47.526;10.028;2022-08-19T09:03:54;24.17;;;12.75;;
63492;SDS011;49638;47.526;10.028;2022-08-19T09:07:04;21.15;;;12.02;;
63492;SDS011;49638;47.526;10.028;2022-08-19T09:10:39;23.55;;;12.27;;
63492;SDS011;49638;47.526;10.028;2022-08-19T09:14:02;20.75;;;11.95;;
63492;SDS011;49638;47.526;10.028;2022-08-19T09:17:09;22.35;;;12.43;;
63492;SDS011;49638;47.526;10.028;2022-08-19T09:23:10;31.02;;;15.55;;
63492;SDS011;49638;47.526;10.028;2022-08-19T09:26:11;27.73;;;16.58;;
63492;SDS011;49638;47.526;10.028;2022-08-19T09:29:14;30.85;;;16.83;;
63492;SDS011;49638;47.526;10.028;2022-08-19T09:32:14;30.42;;;17.55;;
63492;SDS011;49638;47.526;10.028;2022-08-19T09:35:15;35.90;;;18.83;;
63492;SDS011;49638;47.526;10.028;2022-08-19T09:38:15;32.05;;;18.17;;
63492;SDS011;49638;47.526;10.028;2022-08-19T09:41:17;32.72;;;18.15;;
63492;SDS011;49638;47.526;10.028;2022-08-19T09:47:20;31.05;;;16.85;;
63492;SDS011;49638;47.526;10.028;2022-08-19T09:50:21;34.72;;;18.77;;
63492;SDS011;49638;47.526;10.028;2022-08-19T09:53:23;35.10;;;19.77;;
63492;SDS011;49638;47.526;10.028;2022-08-19T09:56:23;26.60;;;16.10;;
63492;SDS011;49638;47.526;10.028;2022-08-19T09:59:24;35.80;;;17.80;;
63492;SDS011;49638;47.526;10.028;2022-08-19T10:02:24;27.98;;;16.52;;
63492;SDS011;49638;47.526;10.028;2022-08-19T10:05:25;36.17;;;19.70;;
63492;SDS011;49638;47.526;10.028;2022-08-19T10:08:44;33.78;;;19.30;;
63492;SDS011;49638;47.526;10.028;2022-08-19T10:11:45;37.25;;;21.30;;
63492;SDS011;49638;47.526;10.028;2022-08-19T10:14:47;35.20;;;20.40;;
63492;SDS011;49638;47.526;10.028;2022-08-19T10:17:48;40.47;;;21.58;;
63492;SDS011;49638;47.526;10.028;2022-08-19T10:20:49;44.78;;;22.75;;
63492;SDS011;49638;47.526;10.028;2022-08-19T10:23:52;44.78;;;22.77;;
63492;SDS011;49638;47.526;10.028;2022-08-19T10:26:54;39.33;;;20.38;;
63492;SDS011;49638;47.526;10.028;2022-08-19T10:29:55;38.78;;;20.13;;
63492;SDS011;49638;47.526;10.028;2022-08-19T10:32:56;35.92;;;19.27;;
63492;SDS011;49638;47.526;10.028;2022-08-19T10:36:00;33.25;;;17.98;;
63492;SDS011;49638;47.526;10.028;2022-08-19T10:39:02;31.98;;;17.98;;
63492;SDS011;49638;47.526;10.028;2022-08-19T10:42:06;31.65;;;17.83;;
63492;SDS011;49638;47.526;10.028;2022-08-19T10:45:07;28.80;;;16.55;;
63492;SDS011;49638;47.526;10.028;2022-08-19T10:48:09;24.63;;;14.00;;
63492;SDS011;49638;47.526;10.028;2022-08-19T10:51:10;24.88;;;14.00;;
63492;SDS011;49638;47.526;10.028;2022-08-19T10:54:29;24.13;;;14.48;;
63492;SDS011;49638;47.526;10.028;2022-08-19T10:57:48;26.73;;;15.15;;
63492;SDS011;49638;47.526;10.028;2022-08-19T11:00:53;23.05;;;14.38;;
63492;SDS011;49638;47.526;10.028;2022-08-19T11:03:57;23.40;;;14.00;;
63492;SDS011;49638;47.526;10.028;2022-08-19T11:06:57;24.17;;;14.02;;
63492;SDS011;49638;47.526;10.028;2022-08-19T11:09:58;23.52;;;13.70;;
63492;SDS011;49638;47.526;10.028;2022-08-19T11:12:58;23.38;;;12.50;;
63492;SDS011;49638;47.526;10.028;2022-08-19T11:16:01;17.95;;;11.10;;
63492;SDS011;49638;47.526;10.028;2022-08-19T11:19:08;18.88;;;11.10;;
63492;SDS011;49638;47.526;10.028;2022-08-19T11:22:09;19.13;;;11.73;;
63492;SDS011;49638;47.526;10.028;2022-08-19T11:25:10;21.17;;;12.20;;
63492;SDS011;49638;47.526;10.028;2022-08-19T11:28:11;22.50;;;13.02;;
63492;SDS011;49638;47.526;10.028;2022-08-19T11:31:16;18.00;;;11.45;;
63492;SDS011;49638;47.526;10.028;2022-08-19T11:34:19;20.60;;;11.90;;
63492;SDS011;49638;47.526;10.028;2022-08-19T11:37:21;20.77;;;12.43;;
63492;SDS011;49638;47.526;10.028;2022-08-19T11:40:22;19.02;;;11.77;;
63492;SDS011;49638;47.526;10.028;2022-08-19T11:43:22;19.52;;;10.82;;
63492;SDS011;49638;47.526;10.028;2022-08-19T11:46:23;19.10;;;11.50;;
63492;SDS011;49638;47.526;10.028;2022-08-19T11:49:25;15.85;;;10.20;;
63492;SDS011;49638;47.526;10.028;2022-08-19T11:52:26;15.98;;;10.07;;
63492;SDS011;49638;47.526;10.028;2022-08-19T11:55:26;15.73;;;9.77;;
63492;SDS011;49638;47.526;10.028;2022-08-19T11:58:27;13.15;;;8.98;;
63492;SDS011;49638;47.526;10.028;2022-08-19T12:01:29;12.57;;;8.52;;
63492;SDS011;49638;47.526;10.028;2022-08-19T12:04:29;13.43;;;9.02;;
63492;SDS011;49638;47.526;10.028;2022-08-19T12:07:29;15.70;;;10.18;;
63492;SDS011;49638;47.526;10.028;2022-08-19T12:10:33;14.80;;;9.82;;
63492;SDS011;49638;47.526;10.028;2022-08-19T12:13:34;13.90;;;8.95;;
63492;SDS011;49638;47.526;10.028;2022-08-19T12:16:35;12.32;;;8.73;;
63492;SDS011;49638;47.526;10.028;2022-08-19T12:19:36;10.93;;;8.57;;
63492;SDS011;49638;47.526;10.028;2022-08-19T12:22:37;13.30;;;8.82;;
63492;SDS011;49638;47.526;10.028;2022-08-19T12:25:43;11.93;;;8.73;;
63492;SDS011;49638;47.526;10.028;2022-08-19T12:28:49;11.93;;;7.78;;
63492;SDS011;49638;47.526;10.028;2022-08-19T12:31:50;10.20;;;7.20;;
63492;SDS011;49638;47.526;10.028;2022-08-19T12:34:51;11.05;;;7.55;;
63492;SDS011;49638;47.526;10.028;2022-08-19T12:37:51;11.77;;;7.18;;
63492;SDS011;49638;47.526;10.028;2022-08-19T12:40:52;9.45;;;5.22;;
63492;SDS011;49638;47.526;10.028;2022-08-19T12:43:52;5.93;;;3.95;;
63492;SDS011;49638;47.526;10.028;2022-08-19T12:46:52;1.98;;;1.38;;
63492;SDS011;49638;47.526;10.028;2022-08-19T12:49:52;0.52;;;0.40;;
63492;SDS011;49638;47.526;10.028;2022-08-19T12:52:54;4.00;;;0.82;;
63492;SDS011;49638;47.526;10.028;2022-08-19T12:55:55;1.65;;;0.38;;
63492;SDS011;49638;47.526;10.028;2022-08-19T12:58:56;1.83;;;0.40;;
63492;SDS011;49638;47.526;10.028;2022-08-19T13:01:57;2.63;;;0.40;;
63492;SDS011;49638;47.526;10.028;2022-08-19T13:04:57;2.20;;;0.30;;
63492;SDS011;49638;47.526;10.028;2022-08-19T13:07:58;0.98;;;0.43;;
63492;SDS011;49638;47.526;10.028;2022-08-19T13:11:06;2.63;;;0.75;;
63492;SDS011;49638;47.526;10.028;2022-08-19T13:14:07;3.90;;;1.20;;
63492;SDS011;49638;47.526;10.028;2022-08-19T13:17:08;12.60;;;1.80;;
63492;SDS011;49638;47.526;10.028;2022-08-19T13:20:08;22.52;;;1.38;;
63492;SDS011;49638;47.526;10.028;2022-08-19T13:23:10;6.47;;;1.00;;
63492;SDS011;49638;47.526;10.028;2022-08-19T13:26:10;2.25;;;2.05;;
63492;SDS011;49638;47.526;10.028;2022-08-19T13:29:12;4.30;;;1.23;;
63492;SDS011;49638;47.526;10.028;2022-08-19T13:32:31;2.58;;;0.43;;
63492;SDS011;49638;47.526;10.028;2022-08-19T13:35:58;0.50;;;0.40;;
63492;SDS011;49638;47.526;10.028;2022-08-19T13:39:00;2.00;;;1.80;;
63492;SDS011;49638;47.526;10.028;2022-08-19T13:42:00;4.38;;;1.38;;
63492;SDS011;49638;47.526;10.028;2022-08-19T13:45:02;0.98;;;0.60;;
63492;SDS011;49638;47.526;10.028;2022-08-19T13:48:03;0.80;;;0.40;;
63492;SDS011;49638;47.526;10.028;2022-08-19T13:51:11;6.00;;;0.52;;
63492;SDS011;49638;47.526;10.028;2022-08-19T13:54:11;5.10;;;0.43;;
63492;SDS011;49638;47.526;10.028;2022-08-19T13:57:12;4.10;;;0.35;;
63492;SDS011;49638;47.526;10.028;2022-08-19T14:00:15;6.65;;;0.85;;
63492;SDS011;49638;47.526;10.028;2022-08-19T14:03:18;1.15;;;0.30;;
63492;SDS011;49638;47.526;10.028;2022-08-19T14:06:18;1.83;;;0.40;;
63492;SDS011;49638;47.526;10.028;2022-08-19T14:09:19;1.90;;;0.52;;
63492;SDS011;49638;47.526;10.028;2022-08-19T14:12:20;0.65;;;0.30;;
63492;SDS011;49638;47.526;10.028;2022-08-19T14:15:20;0.30;;;0.30;;
63492;SDS011;49638;47.526;10.028;2022-08-19T14:18:21;1.52;;;0.30;;
63492;SDS011;49638;47.526;10.028;2022-08-19T14:21:22;1.80;;;0.40;;
63492;SDS011;49638;47.526;10.028;2022-08-19T14:24:24;2.63;;;0.30;;
63492;SDS011;49638;47.526;10.028;2022-08-19T14:27:24;0.03;;;0.03;;
63492;SDS011;49638;47.526;10.028;2022-08-19T14:30:29;0.28;;;0.20;;
63492;SDS011;49638;47.526;10.028;2022-08-19T14:33:31;1.00;;;0.20;;
63492;SDS011;49638;47.526;10.028;2022-08-19T14:36:32;0.85;;;0.20;;
63492;SDS011;49638;47.526;10.028;2022-08-19T14:39:34;0.25;;;0.17;;
63492;SDS011;49638;47.526;10.028;2022-08-19T14:42:34;0.10;;;0.10;;
63492;SDS011;49638;47.526;10.028;2022-08-19T14:45:36;1.55;;;0.10;;
63492;SDS011;49638;47.526;10.028;2022-08-19T14:48:38;0.10;;;0.10;;
63492;SDS011;49638;47.526;10.028;2022-08-19T14:51:38;7.38;;;1.23;;
63492;SDS011;49638;47.526;10.028;2022-08-19T14:54:39;8.02;;;1.30;;
63492;SDS011;49638;47.526;10.028;2022-08-19T14:57:42;3.83;;;0.95;;
63492;SDS011;49638;47.526;10.028;2022-08-19T15:00:43;2.13;;;0.52;;
63492;SDS011;49638;47.526;10.028;2022-08-19T15:03:43;0.90;;;0.85;;
63492;SDS011;49638;47.526;10.028;2022-08-19T15:06:43;0.80;;;0.80;;
63492;SDS011;49638;47.526;10.028;2022-08-19T15:09:43;2.15;;;0.90;;
63492;SDS011;49638;47.526;10.028;2022-08-19T15:12:44;1.92;;;1.67;;
63492;SDS011;49638;47.526;10.028;2022-08-19T15:15:44;7.50;;;5.22;;
63492;SDS011;49638;47.526;10.028;2022-08-19T15:18:46;13.20;;;9.32;;
63492;SDS011;49638;47.526;10.028;2022-08-19T15:21:49;14.85;;;10.88;;
63492;SDS011;49638;47.526;10.028;2022-08-19T15:24:49;15.45;;;10.05;;
63492;SDS011;49638;47.526;10.028;2022-08-19T15:27:50;15.30;;;11.05;;
63492;SDS011;49638;47.526;10.028;2022-08-19T15:30:51;18.65;;;13.27;;
63492;SDS011;49638;47.526;10.028;2022-08-19T15:33:52;21.77;;;15.43;;
63492;SDS011;49638;47.526;10.028;2022-08-19T15:36:52;20.33;;;14.40;;
63492;SDS011;49638;47.526;10.028;2022-08-19T15:39:52;23.60;;;15.38;;
63492;SDS011;49638;47.526;10.028;2022-08-19T15:42:53;24.08;;;16.58;;
63492;SDS011;49638;47.526;10.028;2022-08-19T15:45:53;23.58;;;16.23;;
63492;SDS011;49638;47.526;10.028;2022-08-19T15:48:54;23.30;;;17.02;;
63492;SDS011;49638;47.526;10.028;2022-08-19T15:51:55;24.73;;;17.95;;
63492;SDS011;49638;47.526;10.028;2022-08-19T15:54:56;25.85;;;19.02;;
63492;SDS011;49638;47.526;10.028;2022-08-19T15:57:57;28.83;;;20.10;;
63492;SDS011;49638;47.526;10.028;2022-08-19T16:01:16;28.83;;;19.55;;
63492;SDS011;49638;47.526;10.028;2022-08-19T16:04:35;28.13;;;19.38;;
63492;SDS011;49638;47.526;10.028;2022-08-19T16:07:54;23.33;;;17.23;;
63492;SDS011;49638;47.526;10.028;2022-08-19T16:10:55;24.48;;;17.20;;
63492;SDS011;49638;47.526;10.028;2022-08-19T16:13:55;24.02;;;17.17;;
63492;SDS011;49638;47.526;10.028;2022-08-19T16:16:57;24.73;;;17.85;;
63492;SDS011;49638;47.526;10.028;2022-08-19T16:19:57;24.98;;;17.90;;
63492;SDS011;49638;47.526;10.028;2022-08-19T16:22:58;26.77;;;18.80;;
63492;SDS011;49638;47.526;10.028;2022-08-19T16:25:58;26.92;;;17.95;;
63492;SDS011;49638;47.526;10.028;2022-08-19T16:28:59;26.50;;;18.45;;
63492;SDS011;49638;47.526;10.028;2022-08-19T16:32:02;25.23;;;18.00;;
63492;SDS011;49638;47.526;10.028;2022-08-19T16:35:04;23.60;;;16.73;;
63492;SDS011;49638;47.526;10.028;2022-08-19T16:38:05;22.88;;;16.58;;
63492;SDS011;49638;47.526;10.028;2022-08-19T16:41:06;19.08;;;13.80;;
63492;SDS011;49638;47.526;10.028;2022-08-19T16:44:06;22.40;;;14.35;;
63492;SDS011;49638;47.526;10.028;2022-08-19T16:47:08;19.67;;;12.93;;
63492;SDS011;49638;47.526;10.028;2022-08-19T16:50:09;15.25;;;12.30;;
63492;SDS011;49638;47.526;10.028;2022-08-19T16:53:09;13.07;;;10.18;;
63492;SDS011;49638;47.526;10.028;2022-08-19T16:56:09;19.20;;;12.05;;
63492;SDS011;49638;47.526;10.028;2022-08-19T16:59:10;15.40;;;11.25;;
63492;SDS011;49638;47.526;10.028;2022-08-19T17:02:12;12.82;;;9.98;;
63492;SDS011;49638;47.526;10.028;2022-08-19T17:05:13;14.02;;;10.05;;
63492;SDS011;49638;47.526;10.028;2022-08-19T17:08:14;13.77;;;9.48;;
63492;SDS011;49638;47.526;10.028;2022-08-19T17:11:16;7.10;;;6.13;;
63492;SDS011;49638;47.526;10.028;2022-08-19T17:14:17;7.80;;;5.72;;
63492;SDS011;49638;47.526;10.028;2022-08-19T17:17:18;6.55;;;4.30;;
63492;SDS011;49638;47.526;10.028;2022-08-19T17:20:20;4.70;;;3.60;;
63492;SDS011;49638;47.526;10.028;2022-08-19T17:23:20;3.72;;;3.17;;
63492;SDS011;49638;47.526;10.028;2022-08-19T17:29:24;4.47;;;2.70;;
63492;SDS011;49638;47.526;10.028;2022-08-19T17:32:25;5.15;;;3.08;;
63492;SDS011;49638;47.526;10.028;2022-08-19T17:35:26;3.33;;;2.97;;
63492;SDS011;49638;47.526;10.028;2022-08-19T17:38:26;6.97;;;4.80;;
63492;SDS011;49638;47.526;10.028;2022-08-19T17:41:27;11.43;;;6.28;;
63492;SDS011;49638;47.526;10.028;2022-08-19T17:44:29;10.50;;;8.48;;
63492;SDS011;49638;47.526;10.028;2022-08-19T17:47:29;14.60;;;9.32;;
63492;SDS011;49638;47.526;10.028;2022-08-19T17:50:30;16.10;;;9.90;;
63492;SDS011;49638;47.526;10.028;2022-08-19T17:53:31;7.70;;;6.03;;
63492;SDS011;49638;47.526;10.028;2022-08-19T17:56:32;8.40;;;6.13;;
63492;SDS011;49638;47.526;10.028;2022-08-19T17:59:32;17.35;;;8.50;;
63492;SDS011;49638;47.526;10.028;2022-08-19T18:02:32;19.13;;;13.55;;
63492;SDS011;49638;47.526;10.028;2022-08-19T18:05:34;23.30;;;15.20;;
63492;SDS011;49638;47.526;10.028;2022-08-19T18:08:41;27.25;;;15.73;;
63492;SDS011;49638;47.526;10.028;2022-08-19T18:11:44;20.67;;;13.68;;
63492;SDS011;49638;47.526;10.028;2022-08-19T18:14:44;16.00;;;11.60;;
63492;SDS011;49638;47.526;10.028;2022-08-19T18:17:45;16.73;;;12.10;;
63492;SDS011;49638;47.526;10.028;2022-08-19T18:20:45;17.95;;;12.60;;
63492;SDS011;49638;47.526;10.028;2022-08-19T18:23:46;15.00;;;10.45;;